sensor_id;sensor_type;location;lat;lon;timestamp;pressure;altitude;pressure_sealevel;temperature;humidity
5872;BME280;2962;51.312;7.378;2023-04-25T00:01:32;96781.72;;;3.57;100.00
5872;BME280;2962;51.312;7.378;2023-04-25T00:04:01;96770.63;;;3.59;100.00
5872;BME280;2962;51.312;7.378;2023-04-25T00:06:28;96775.31;;;3.62;100.00
5872;BME280;2962;51.312;7.378;2023-04-25T00:08:55;96770.84;;;3.66;100.00
5872;BME280;2962;51.312;7.378;2023-04-25T00:11:21;96773.63;;;3.70;100.00
5872;BME280;2962;51.312;7.378;2023-04-25T00:13:47;96770.06;;;3.65;100.00
5872;BME280;2962;51.312;7.378;2023-04-25T00:16:13;96781.72;;;3.70;100.00
5872;BME280;2962;51.312;7.378;2023-04-25T00:18:41;96767.91;;;3.71;100.00
5872;BME280;2962;51.312;7.378;2023-04-25T00:21:07;96778.66;;;3.71;100.00
5872;BME280;2962;51.312;7.378;2023-04-25T00:23:32;96780.94;;;3.69;100.00
5872;BME280;2962;51.312;7.378;2023-04-25T00:25:57;96775.19;;;3.71;100.00
5872;BME280;2962;51.312;7.378;2023-04-25T00:28:23;96784.50;;;3.73;100.00
5872;BME280;2962;51.312;7.378;2023-04-25T00:30:48;96774.94;;;3.76;100.00
5872;BME280;2962;51.312;7.378;2023-04-25T00:33:13;96764.06;;;3.72;100.00
5872;BME280;2962;51.312;7.378;2023-04-25T00:35:39;96771.03;;;3.73;100.00
5872;BME280;2962;51.312;7.378;2023-04-25T00:38:04;96773.94;;;3.80;100.00
5872;BME280;2962;51.312;7.378;2023-04-25T00:40:29;96770.13;;;3.81;100.00
5872;BME280;2962;51.312;7.378;2023-04-25T00:42:55;96770.81;;;3.78;100.00
5872;BME280;2962;51.312;7.378;2023-04-25T00:45:20;96772.38;;;3.79;100.00
5872;BME280;2962;51.312;7.378;2023-04-25T00:47:46;96770.44;;;3.80;100.00
5872;BME280;2962;51.312;7.378;2023-04-25T00:50:13;96776.19;;;3.78;100.00
5872;BME280;2962;51.312;7.378;2023-04-25T00:52:40;96770.34;;;3.76;100.00
5872;BME280;2962;51.312;7.378;2023-04-25T00:55:07;96770.47;;;3.67;100.00
5872;BME280;2962;51.312;7.378;2023-04-25T00:57:33;96782.50;;;3.70;100.00
5872;BME280;2962;51.312;7.378;2023-04-25T00:59:58;96777.09;;;3.70;100.00
5872;BME280;2962;51.312;7.378;2023-04-25T01:02:25;96772.16;;;3.72;100.00
5872;BME280;2962;51.312;7.378;2023-04-25T01:04:51;96768.69;;;3.72;100.00
5872;BME280;2962;51.312;7.378;2023-04-25T01:07:16;96773.75;;;3.73;100.00
5872;BME280;2962;51.312;7.378;2023-04-25T01:09:42;96774.16;;;3.75;100.00
5872;BME280;2962;51.312;7.378;2023-04-25T01:12:07;96764.53;;;3.74;100.00
5872;BME280;2962;51.312;7.378;2023-04-25T01:14:32;96764.41;;;3.71;100.00
5872;BME280;2962;51.312;7.378;2023-04-25T01:16:58;96760.16;;;3.70;100.00
5872;BME280;2962;51.312;7.378;2023-04-25T01:19:24;96772.25;;;3.76;100.00
5872;BME280;2962;51.312;7.378;2023-04-25T01:21:50;96775.72;;;3.76;100.00
5872;BME280;2962;51.312;7.378;2023-04-25T01:24:16;96764.19;;;3.76;100.00
5872;BME280;2962;51.312;7.378;2023-04-25T01:26:42;96769.91;;;3.74;100.00
5872;BME280;2962;51.312;7.378;2023-04-25T01:29:16;96771.94;;;3.77;100.00
5872;BME280;2962;51.312;7.378;2023-04-25T01:31:41;96757.91;;;3.72;100.00
5872;BME280;2962;51.312;7.378;2023-04-25T01:34:07;96769.03;;;3.70;100.00
5872;BME280;2962;51.312;7.378;2023-04-25T01:36:33;96762.16;;;3.73;100.00
5872;BME280;2962;51.312;7.378;2023-04-25T01:38:59;96774.16;;;3.75;100.00
5872;BME280;2962;51.312;7.378;2023-04-25T01:41:25;96779.13;;;3.73;100.00
5872;BME280;2962;51.312;7.378;2023-04-25T01:43:51;96782.03;;;3.68;100.00
5872;BME280;2962;51.312;7.378;2023-04-25T01:46:17;96780.94;;;3.69;100.00
5872;BME280;2962;51.312;7.378;2023-04-25T01:48:42;96776.53;;;3.64;100.00
5872;BME280;2962;51.312;7.378;2023-04-25T01:51:07;96791.13;;;3.76;100.00
5872;BME280;2962;51.312;7.378;2023-04-25T01:53:33;96782.59;;;3.74;100.00
5872;BME280;2962;51.312;7.378;2023-04-25T01:55:58;96784.94;;;3.75;100.00
5872;BME280;2962;51.312;7.378;2023-04-25T01:58:24;96774.31;;;3.66;100.00
5872;BME280;2962;51.312;7.378;2023-04-25T02:00:49;96764.75;;;3.57;100.00
5872;BME280;2962;51.312;7.378;2023-04-25T02:03:15;96796.84;;;3.74;100.00
5872;BME280;2962;51.312;7.378;2023-04-25T02:05:40;96797.19;;;3.73;100.00
5872;BME280;2962;51.312;7.378;2023-04-25T02:08:06;96793.59;;;3.68;100.00
5872;BME280;2962;51.312;7.378;2023-04-25T02:10:33;96792.38;;;3.66;100.00
5872;BME280;2962;51.312;7.378;2023-04-25T02:12:58;96793.16;;;3.66;100.00
5872;BME280;2962;51.312;7.378;2023-04-25T02:15:24;96790.47;;;3.66;100.00
5872;BME280;2962;51.312;7.378;2023-04-25T02:17:49;96804.81;;;3.71;100.00
5872;BME280;2962;51.312;7.378;2023-04-25T02:20:15;96798.31;;;3.59;100.00
5872;BME280;2962;51.312;7.378;2023-04-25T02:22:41;96810.00;;;3.63;100.00
5872;BME280;2962;51.312;7.378;2023-04-25T02:25:08;96801.13;;;3.63;100.00
5872;BME280;2962;51.312;7.378;2023-04-25T02:27:34;96804.06;;;3.58;100.00
5872;BME280;2962;51.312;7.378;2023-04-25T02:29:59;96802.72;;;3.52;100.00
5872;BME280;2962;51.312;7.378;2023-04-25T02:32:25;96810.13;;;3.55;100.00
5872;BME280;2962;51.312;7.378;2023-04-25T02:34:50;96802.34;;;3.53;100.00
5872;BME280;2962;51.312;7.378;2023-04-25T02:37:15;96813.59;;;3.55;100.00
5872;BME280;2962;51.312;7.378;2023-04-25T02:39:41;96807.31;;;3.51;100.00
5872;BME280;2962;51.312;7.378;2023-04-25T02:42:06;96815.03;;;3.53;100.00
5872;BME280;2962;51.312;7.378;2023-04-25T02:44:31;96816.28;;;3.55;100.00
5872;BME280;2962;51.312;7.378;2023-04-25T02:46:57;96810.00;;;3.51;100.00
5872;BME280;2962;51.312;7.378;2023-04-25T02:49:22;96815.94;;;3.45;100.00
5872;BME280;2962;51.312;7.378;2023-04-25T02:51:47;96818.88;;;3.52;100.00
5872;BME280;2962;51.312;7.378;2023-04-25T02:54:13;96815.72;;;3.50;100.00
5872;BME280;2962;51.312;7.378;2023-04-25T02:56:38;96818.09;;;3.51;100.00
5872;BME280;2962;51.312;7.378;2023-04-25T02:59:03;96816.19;;;3.52;100.00
5872;BME280;2962;51.312;7.378;2023-04-25T03:01:29;96815.03;;;3.53;100.00
5872;BME280;2962;51.312;7.378;2023-04-25T03:03:54;96809.53;;;3.49;100.00
5872;BME280;2962;51.312;7.378;2023-04-25T03:06:19;96815.41;;;3.51;100.00
5872;BME280;2962;51.312;7.378;2023-04-25T03:08:45;96815.03;;;3.53;100.00
5872;BME280;2962;51.312;7.378;2023-04-25T03:11:10;96813.94;;;3.54;100.00
5872;BME280;2962;51.312;7.378;2023-04-25T03:13:35;96820.91;;;3.55;100.00
5872;BME280;2962;51.312;7.378;2023-04-25T03:16:01;96814.84;;;3.58;100.00
5872;BME280;2962;51.312;7.378;2023-04-25T03:18:26;96818.63;;;3.57;100.00
5872;BME280;2962;51.312;7.378;2023-04-25T03:20:51;96817.75;;;3.53;100.00
5872;BME280;2962;51.312;7.378;2023-04-25T03:23:17;96819.44;;;3.45;100.00
5872;BME280;2962;51.312;7.378;2023-04-25T03:25:42;96828.19;;;3.54;100.00
5872;BME280;2962;51.312;7.378;2023-04-25T03:28:08;96826.16;;;3.51;100.00
5872;BME280;2962;51.312;7.378;2023-04-25T03:30:33;96829.75;;;3.55;100.00
5872;BME280;2962;51.312;7.378;2023-04-25T03:32:58;96818.31;;;3.58;100.00
5872;BME280;2962;51.312;7.378;2023-04-25T03:35:24;96820.91;;;3.55;100.00
5872;BME280;2962;51.312;7.378;2023-04-25T03:37:50;96825.81;;;3.53;100.00
5872;BME280;2962;51.312;7.378;2023-04-25T03:40:15;96825.28;;;3.47;100.00
5872;BME280;2962;51.312;7.378;2023-04-25T03:42:40;96834.13;;;3.48;100.00
5872;BME280;2962;51.312;7.378;2023-04-25T03:45:06;96833.34;;;3.47;100.00
5872;BME280;2962;51.312;7.378;2023-04-25T03:47:32;96839.63;;;3.51;100.00
5872;BME280;2962;51.312;7.378;2023-04-25T03:49:57;96831.88;;;3.37;100.00
5872;BME280;2962;51.312;7.378;2023-04-25T03:52:22;96844.66;;;3.28;100.00
5872;BME280;2962;51.312;7.378;2023-04-25T03:54:48;96842.09;;;3.20;100.00
5872;BME280;2962;51.312;7.378;2023-04-25T03:57:13;96845.09;;;3.18;100.00
5872;BME280;2962;51.312;7.378;2023-04-25T03:59:39;96847.13;;;3.09;100.00
5872;BME280;2962;51.312;7.378;2023-04-25T04:02:04;96836.22;;;2.93;100.00
5872;BME280;2962;51.312;7.378;2023-04-25T04:04:30;96844.72;;;2.95;100.00
5872;BME280;2962;51.312;7.378;2023-04-25T04:06:55;96851.22;;;2.94;100.00
5872;BME280;2962;51.312;7.378;2023-04-25T04:09:20;96838.97;;;2.84;100.00
5872;BME280;2962;51.312;7.378;2023-04-25T04:11:46;96831.13;;;2.79;100.00
5872;BME280;2962;51.312;7.378;2023-04-25T04:14:11;96839.91;;;2.88;100.00
5872;BME280;2962;51.312;7.378;2023-04-25T04:16:37;96851.09;;;2.90;100.00
5872;BME280;2962;51.312;7.378;2023-04-25T04:19:02;96842.78;;;2.83;100.00
5872;BME280;2962;51.312;7.378;2023-04-25T04:21:28;96855.03;;;2.93;100.00
5872;BME280;2962;51.312;7.378;2023-04-25T04:23:54;96850.09;;;2.95;100.00
5872;BME280;2962;51.312;7.378;2023-04-25T04:26:20;96864.34;;;2.96;100.00
5872;BME280;2962;51.312;7.378;2023-04-25T04:28:48;96848.41;;;2.90;100.00
5872;BME280;2962;51.312;7.378;2023-04-25T04:31:15;96863.81;;;3.02;100.00
5872;BME280;2962;51.312;7.378;2023-04-25T04:33:40;96857.75;;;3.05;100.00
5872;BME280;2962;51.312;7.378;2023-04-25T04:36:06;96858.44;;;3.14;100.00
5872;BME280;2962;51.312;7.378;2023-04-25T04:38:32;96869.31;;;3.18;100.00
5872;BME280;2962;51.312;7.378;2023-04-25T04:40:58;96861.38;;;3.22;100.00
5872;BME280;2962;51.312;7.378;2023-04-25T04:43:23;96859.13;;;3.24;100.00
5872;BME280;2962;51.312;7.378;2023-04-25T04:45:49;96870.56;;;3.21;100.00
5872;BME280;2962;51.312;7.378;2023-04-25T04:48:16;96867.88;;;3.21;100.00
5872;BME280;2962;51.312;7.378;2023-04-25T04:50:43;96871.81;;;3.23;100.00
5872;BME280;2962;51.312;7.378;2023-04-25T04:53:10;96874.81;;;3.22;100.00
5872;BME280;2962;51.312;7.378;2023-04-25T04:55:35;96875.28;;;3.24;100.00
5872;BME280;2962;51.312;7.378;2023-04-25T04:58:01;96882.91;;;3.22;100.00
5872;BME280;2962;51.312;7.378;2023-04-25T05:00:26;96884.88;;;3.00;100.00
5872;BME280;2962;51.312;7.378;2023-04-25T05:02:52;96888.72;;;2.78;100.00
5872;BME280;2962;51.312;7.378;2023-04-25T05:05:18;96895.38;;;2.60;100.00
5872;BME280;2962;51.312;7.378;2023-04-25T05:07:43;96902.84;;;2.33;100.00
5872;BME280;2962;51.312;7.378;2023-04-25T05:10:09;96904.19;;;2.27;100.00
5872;BME280;2962;51.312;7.378;2023-04-25T05:12:34;96895.59;;;2.13;100.00
5872;BME280;2962;51.312;7.378;2023-04-25T05:14:59;96904.22;;;2.18;100.00
5872;BME280;2962;51.312;7.378;2023-04-25T05:17:25;96911.31;;;2.23;100.00
5872;BME280;2962;51.312;7.378;2023-04-25T05:19:50;96913.94;;;2.53;100.00
5872;BME280;2962;51.312;7.378;2023-04-25T05:22:16;96912.72;;;2.50;100.00
5872;BME280;2962;51.312;7.378;2023-04-25T05:24:41;96916.03;;;2.68;100.00
5872;BME280;2962;51.312;7.378;2023-04-25T05:27:06;96915.47;;;2.96;100.00
5872;BME280;2962;51.312;7.378;2023-04-25T05:29:32;96921.53;;;2.92;100.00
5872;BME280;2962;51.312;7.378;2023-04-25T05:31:57;96922.06;;;2.65;100.00
5872;BME280;2962;51.312;7.378;2023-04-25T05:34:22;96918.47;;;2.61;100.00
5872;BME280;2962;51.312;7.378;2023-04-25T05:36:48;96926.22;;;2.62;100.00
5872;BME280;2962;51.312;7.378;2023-04-25T05:39:18;96927.38;;;2.53;100.00
5872;BME280;2962;51.312;7.378;2023-04-25T05:41:43;96924.38;;;2.54;100.00
5872;BME280;2962;51.312;7.378;2023-04-25T05:44:08;96929.16;;;2.69;100.00
5872;BME280;2962;51.312;7.378;2023-04-25T05:46:34;96933.41;;;2.71;100.00
5872;BME280;2962;51.312;7.378;2023-04-25T05:48:59;96933.41;;;2.71;100.00
5872;BME280;2962;51.312;7.378;2023-04-25T05:51:25;96934.28;;;2.62;100.00
5872;BME280;2962;51.312;7.378;2023-04-25T05:53:51;96945.47;;;2.64;100.00
5872;BME280;2962;51.312;7.378;2023-04-25T05:56:16;96946.47;;;2.60;100.00
5872;BME280;2962;51.312;7.378;2023-04-25T05:58:42;96941.22;;;2.63;100.00
5872;BME280;2962;51.312;7.378;2023-04-25T06:01:07;96942.94;;;2.68;100.00
5872;BME280;2962;51.312;7.378;2023-04-25T06:03:34;96941.16;;;2.72;100.00
5872;BME280;2962;51.312;7.378;2023-04-25T06:05:59;96954.22;;;2.82;100.00
5872;BME280;2962;51.312;7.378;2023-04-25T06:08:24;96952.69;;;2.93;100.00
5872;BME280;2962;51.312;7.378;2023-04-25T06:10:50;96960.03;;;3.05;100.00
5872;BME280;2962;51.312;7.378;2023-04-25T06:13:15;96970.88;;;2.97;100.00
5872;BME280;2962;51.312;7.378;2023-04-25T06:15:40;96948.81;;;2.82;100.00
5872;BME280;2962;51.312;7.378;2023-04-25T06:18:06;96965.03;;;2.94;100.00
5872;BME280;2962;51.312;7.378;2023-04-25T06:20:32;96944.28;;;2.95;100.00
5872;BME280;2962;51.312;7.378;2023-04-25T06:22:57;96961.75;;;3.22;100.00
5872;BME280;2962;51.312;7.378;2023-04-25T06:25:22;96953.81;;;3.26;100.00
5872;BME280;2962;51.312;7.378;2023-04-25T06:27:48;96955.41;;;3.39;100.00
5872;BME280;2962;51.312;7.378;2023-04-25T06:30:13;96961.06;;;3.58;100.00
5872;BME280;2962;51.312;7.378;2023-04-25T06:32:39;96953.78;;;3.59;100.00
5872;BME280;2962;51.312;7.378;2023-04-25T06:35:04;96967.91;;;3.68;100.00
5872;BME280;2962;51.312;7.378;2023-04-25T06:37:30;96967.50;;;3.78;100.00
5872;BME280;2962;51.312;7.378;2023-04-25T06:39:55;96965.25;;;3.92;100.00
5872;BME280;2962;51.312;7.378;2023-04-25T06:42:21;96962.69;;;3.96;100.00
5872;BME280;2962;51.312;7.378;2023-04-25T06:44:46;96960.31;;;3.82;100.00
5872;BME280;2962;51.312;7.378;2023-04-25T06:47:12;96967.84;;;4.01;100.00
5872;BME280;2962;51.312;7.378;2023-04-25T06:49:37;96961.66;;;4.25;100.00
5872;BME280;2962;51.312;7.378;2023-04-25T06:52:02;96960.28;;;4.44;100.00
5872;BME280;2962;51.312;7.378;2023-04-25T06:54:28;96967.03;;;4.50;100.00
5872;BME280;2962;51.312;7.378;2023-04-25T06:56:55;96959.38;;;4.52;100.00
5872;BME280;2962;51.312;7.378;2023-04-25T06:59:20;96974.56;;;4.44;100.00
5872;BME280;2962;51.312;7.378;2023-04-25T07:01:46;96966.59;;;4.35;100.00
5872;BME280;2962;51.312;7.378;2023-04-25T07:04:11;96956.81;;;4.06;100.00
5872;BME280;2962;51.312;7.378;2023-04-25T07:06:36;96973.47;;;4.08;100.00
5872;BME280;2962;51.312;7.378;2023-04-25T07:09:07;96972.78;;;3.99;100.00
5872;BME280;2962;51.312;7.378;2023-04-25T07:11:33;96981.88;;;3.95;100.00
5872;BME280;2962;51.312;7.378;2023-04-25T07:13:59;96982.34;;;4.09;100.00
5872;BME280;2962;51.312;7.378;2023-04-25T07:16:24;96978.28;;;4.15;100.00
5872;BME280;2962;51.312;7.378;2023-04-25T07:18:50;96979.63;;;4.21;100.00
5872;BME280;2962;51.312;7.378;2023-04-25T07:21:15;96992.00;;;4.34;100.00
5872;BME280;2962;51.312;7.378;2023-04-25T07:23:40;96988.50;;;4.46;100.00
5872;BME280;2962;51.312;7.378;2023-04-25T07:26:06;96995.47;;;4.47;100.00
5872;BME280;2962;51.312;7.378;2023-04-25T07:28:31;96990.63;;;4.40;100.00
5872;BME280;2962;51.312;7.378;2023-04-25T07:30:57;96986.81;;;4.54;100.00
5872;BME280;2962;51.312;7.378;2023-04-25T07:33:23;96999.13;;;4.67;100.00
5872;BME280;2962;51.312;7.378;2023-04-25T07:35:48;96990.41;;;4.58;100.00
5872;BME280;2962;51.312;7.378;2023-04-25T07:38:14;96993.00;;;4.42;100.00
5872;BME280;2962;51.312;7.378;2023-04-25T07:40:39;96996.25;;;4.48;100.00
5872;BME280;2962;51.312;7.378;2023-04-25T07:43:04;96994.47;;;4.39;100.00
5872;BME280;2962;51.312;7.378;2023-04-25T07:45:30;96977.94;;;4.29;100.00
5872;BME280;2962;51.312;7.378;2023-04-25T07:47:55;96992.22;;;4.17;100.00
5872;BME280;2962;51.312;7.378;2023-04-25T07:50:21;96998.16;;;4.10;100.00
5872;BME280;2962;51.312;7.378;2023-04-25T07:52:46;96997.38;;;3.85;100.00
5872;BME280;2962;51.312;7.378;2023-04-25T07:55:11;97008.78;;;3.58;100.00
5872;BME280;2962;51.312;7.378;2023-04-25T07:57:40;97008.44;;;3.59;100.00
5872;BME280;2962;51.312;7.378;2023-04-25T08:00:06;97011.25;;;3.63;100.00
5872;BME280;2962;51.312;7.378;2023-04-25T08:02:35;97023.41;;;3.81;100.00
5872;BME280;2962;51.312;7.378;2023-04-25T08:05:00;97010.63;;;3.90;100.00
5872;BME280;2962;51.312;7.378;2023-04-25T08:07:25;97021.53;;;4.19;100.00
5872;BME280;2962;51.312;7.378;2023-04-25T08:09:51;97029.28;;;4.45;100.00
5872;BME280;2962;51.312;7.378;2023-04-25T08:12:17;97039.59;;;4.79;100.00
5872;BME280;2962;51.312;7.378;2023-04-25T08:14:43;97036.06;;;4.91;100.00
5872;BME280;2962;51.312;7.378;2023-04-25T08:17:09;97041.13;;;5.05;100.00
5872;BME280;2962;51.312;7.378;2023-04-25T08:19:34;97035.41;;;5.22;100.00
5872;BME280;2962;51.312;7.378;2023-04-25T08:22:00;97043.41;;;5.31;100.00
5872;BME280;2962;51.312;7.378;2023-04-25T08:24:25;97042.31;;;5.48;100.00
5872;BME280;2962;51.312;7.378;2023-04-25T08:26:51;97044.13;;;5.44;100.00
5872;BME280;2962;51.312;7.378;2023-04-25T08:29:16;97048.84;;;5.47;100.00
5872;BME280;2962;51.312;7.378;2023-04-25T08:31:42;97045.50;;;5.37;100.00
5872;BME280;2962;51.312;7.378;2023-04-25T08:34:07;97038.63;;;5.12;100.00
5872;BME280;2962;51.312;7.378;2023-04-25T08:36:36;97051.88;;;5.17;100.00
5872;BME280;2962;51.312;7.378;2023-04-25T08:39:01;97061.78;;;5.13;100.00
5872;BME280;2962;51.312;7.378;2023-04-25T08:41:27;97069.22;;;5.16;100.00
5872;BME280;2962;51.312;7.378;2023-04-25T08:43:53;97062.06;;;5.80;100.00
5872;BME280;2962;51.312;7.378;2023-04-25T08:46:21;97062.34;;;5.75;100.00
5872;BME280;2962;51.312;7.378;2023-04-25T08:48:46;97065.56;;;5.93;100.00
5872;BME280;2962;51.312;7.378;2023-04-25T08:51:22;97062.59;;;6.29;100.00
5872;BME280;2962;51.312;7.378;2023-04-25T08:53:51;97081.44;;;6.42;100.00
5872;BME280;2962;51.312;7.378;2023-04-25T08:56:18;97076.59;;;6.82;100.00
5872;BME280;2962;51.312;7.378;2023-04-25T08:58:47;97083.34;;;6.89;100.00
5872;BME280;2962;51.312;7.378;2023-04-25T09:01:13;97087.78;;;6.97;100.00
5872;BME280;2962;51.312;7.378;2023-04-25T09:03:38;97092.31;;;6.93;100.00
5872;BME280;2962;51.312;7.378;2023-04-25T09:06:04;97091.84;;;6.24;100.00
5872;BME280;2962;51.312;7.378;2023-04-25T09:08:29;97092.81;;;6.16;100.00
5872;BME280;2962;51.312;7.378;2023-04-25T09:10:55;97096.59;;;5.71;100.00
5872;BME280;2962;51.312;7.378;2023-04-25T09:13:26;97103.44;;;5.80;100.00
5872;BME280;2962;51.312;7.378;2023-04-25T09:15:53;97111.28;;;6.14;100.00
5872;BME280;2962;51.312;7.378;2023-04-25T09:18:25;97108.44;;;6.38;100.00
5872;BME280;2962;51.312;7.378;2023-04-25T09:20:55;97123.06;;;6.21;100.00
5872;BME280;2962;51.312;7.378;2023-04-25T09:23:22;97128.72;;;6.00;100.00
5872;BME280;2962;51.312;7.378;2023-04-25T09:25:49;97115.09;;;5.97;100.00
5872;BME280;2962;51.312;7.378;2023-04-25T09:28:15;97120.09;;;6.26;100.00
5872;BME280;2962;51.312;7.378;2023-04-25T09:30:41;97114.78;;;6.30;100.00
5872;BME280;2962;51.312;7.378;2023-04-25T09:33:08;97126.72;;;6.13;100.00
5872;BME280;2962;51.312;7.378;2023-04-25T09:35:51;97127.25;;;5.91;100.00
5872;BME280;2962;51.312;7.378;2023-04-25T09:38:20;97133.81;;;6.33;100.00
5872;BME280;2962;51.312;7.378;2023-04-25T09:40:48;97134.16;;;6.16;100.00
5872;BME280;2962;51.312;7.378;2023-04-25T09:43:22;97136.41;;;6.14;100.00
5872;BME280;2962;51.312;7.378;2023-04-25T09:45:48;97128.56;;;6.25;100.00
5872;BME280;2962;51.312;7.378;2023-04-25T09:48:21;97138.81;;;6.63;100.00
5872;BME280;2962;51.312;7.378;2023-04-25T09:53:29;97134.41;;;6.90;100.00
5872;BME280;2962;51.312;7.378;2023-04-25T09:55:55;97141.66;;;7.02;100.00
5872;BME280;2962;51.312;7.378;2023-04-25T09:58:23;97140.03;;;6.66;100.00
5872;BME280;2962;51.312;7.378;2023-04-25T10:00:50;97142.22;;;6.60;100.00
5872;BME280;2962;51.312;7.378;2023-04-25T10:03:17;97147.09;;;6.86;100.00
5872;BME280;2962;51.312;7.378;2023-04-25T10:05:43;97147.03;;;7.18;100.00
5872;BME280;2962;51.312;7.378;2023-04-25T10:08:08;97145.56;;;7.75;100.00
5872;BME280;2962;51.312;7.378;2023-04-25T10:10:35;97110.22;;;8.33;100.00
5872;BME280;2962;51.312;7.378;2023-04-25T10:13:04;97149.16;;;8.64;100.00
5872;BME280;2962;51.312;7.378;2023-04-25T10:15:32;97150.34;;;8.89;100.00
5872;BME280;2962;51.312;7.378;2023-04-25T10:18:00;97147.00;;;8.73;100.00
5872;BME280;2962;51.312;7.378;2023-04-25T10:20:26;97156.63;;;8.47;100.00
5872;BME280;2962;51.312;7.378;2023-04-25T10:22:53;97148.41;;;7.82;100.00
5872;BME280;2962;51.312;7.378;2023-04-25T10:25:22;97158.69;;;7.73;100.00
5872;BME280;2962;51.312;7.378;2023-04-25T10:27:51;97163.34;;;7.37;100.00
5872;BME280;2962;51.312;7.378;2023-04-25T10:30:17;97166.69;;;7.30;100.00
5872;BME280;2962;51.312;7.378;2023-04-25T10:32:43;97163.22;;;7.49;100.00
5872;BME280;2962;51.312;7.378;2023-04-25T10:35:15;97167.16;;;7.52;100.00
5872;BME280;2962;51.312;7.378;2023-04-25T10:38:00;97175.31;;;7.36;100.00
5872;BME280;2962;51.312;7.378;2023-04-25T10:40:28;97171.44;;;7.02;100.00
5872;BME280;2962;51.312;7.378;2023-04-25T10:42:54;97174.78;;;7.11;100.00
5872;BME280;2962;51.312;7.378;2023-04-25T10:45:20;97179.94;;;7.00;100.00
5872;BME280;2962;51.312;7.378;2023-04-25T10:47:46;97178.28;;;6.64;100.00
5872;BME280;2962;51.312;7.378;2023-04-25T10:50:12;97177.84;;;6.78;100.00
5872;BME280;2962;51.312;7.378;2023-04-25T10:52:39;97171.28;;;6.95;100.00
5872;BME280;2962;51.312;7.378;2023-04-25T10:55:06;97182.69;;;7.36;100.00
5872;BME280;2962;51.312;7.378;2023-04-25T11:00:07;97179.88;;;7.67;100.00
5872;BME280;2962;51.312;7.378;2023-04-25T11:02:37;97177.06;;;8.41;100.00
5872;BME280;2962;51.312;7.378;2023-04-25T11:05:03;97183.34;;;8.45;100.00
5872;BME280;2962;51.312;7.378;2023-04-25T11:10:11;97191.31;;;7.76;100.00
5872;BME280;2962;51.312;7.378;2023-04-25T11:12:36;97187.81;;;7.41;100.00
5872;BME280;2962;51.312;7.378;2023-04-25T11:15:04;97185.25;;;7.13;100.00
5872;BME280;2962;51.312;7.378;2023-04-25T11:17:30;97180.72;;;7.01;100.00
5872;BME280;2962;51.312;7.378;2023-04-25T11:19:55;97190.09;;;7.03;100.00
5872;BME280;2962;51.312;7.378;2023-04-25T11:22:21;97190.72;;;7.32;100.00
5872;BME280;2962;51.312;7.378;2023-04-25T11:24:47;97184.03;;;7.61;100.00
5872;BME280;2962;51.312;7.378;2023-04-25T11:27:12;97184.13;;;7.84;100.00
5872;BME280;2962;51.312;7.378;2023-04-25T11:29:38;97181.88;;;7.70;100.00
5872;BME280;2962;51.312;7.378;2023-04-25T11:32:03;97184.13;;;7.49;100.00
5872;BME280;2962;51.312;7.378;2023-04-25T11:34:30;97189.88;;;7.28;100.00
5872;BME280;2962;51.312;7.378;2023-04-25T11:36:56;97194.50;;;7.27;100.00
5872;BME280;2962;51.312;7.378;2023-04-25T11:39:24;97194.16;;;7.13;100.00
5872;BME280;2962;51.312;7.378;2023-04-25T11:41:50;97192.94;;;6.63;100.00
5872;BME280;2962;51.312;7.378;2023-04-25T11:44:19;97203.94;;;6.39;100.00
5872;BME280;2962;51.312;7.378;2023-04-25T11:46:45;97213.19;;;5.69;100.00
5872;BME280;2962;51.312;7.378;2023-04-25T11:49:11;97226.41;;;5.22;100.00
5872;BME280;2962;51.312;7.378;2023-04-25T11:51:44;97227.53;;;4.96;100.00
5872;BME280;2962;51.312;7.378;2023-04-25T11:54:10;97216.03;;;4.99;100.00
5872;BME280;2962;51.312;7.378;2023-04-25T11:56:37;97236.28;;;5.30;100.00
5872;BME280;2962;51.312;7.378;2023-04-25T11:59:03;97236.84;;;5.48;100.00
5872;BME280;2962;51.312;7.378;2023-04-25T12:03:56;97232.91;;;6.10;100.00
5872;BME280;2962;51.312;7.378;2023-04-25T12:06:21;97236.63;;;6.33;100.00
5872;BME280;2962;51.312;7.378;2023-04-25T12:09:03;97214.94;;;6.46;100.00
5872;BME280;2962;51.312;7.378;2023-04-25T12:11:30;97230.41;;;7.40;100.00
5872;BME280;2962;51.312;7.378;2023-04-25T12:14:01;97229.19;;;9.16;100.00
5872;BME280;2962;51.312;7.378;2023-04-25T12:16:27;97219.13;;;10.30;100.00
5872;BME280;2962;51.312;7.378;2023-04-25T12:18:52;97217.28;;;10.41;100.00
5872;BME280;2962;51.312;7.378;2023-04-25T12:21:20;97222.75;;;10.78;100.00
5872;BME280;2962;51.312;7.378;2023-04-25T12:23:45;97218.00;;;9.74;100.00
5872;BME280;2962;51.312;7.378;2023-04-25T12:26:11;97228.06;;;9.43;100.00
5872;BME280;2962;51.312;7.378;2023-04-25T12:28:36;97228.78;;;9.67;100.00
5872;BME280;2962;51.312;7.378;2023-04-25T12:31:03;97227.56;;;9.91;100.00
5872;BME280;2962;51.312;7.378;2023-04-25T12:33:34;97227.34;;;10.70;100.00
5872;BME280;2962;51.312;7.378;2023-04-25T12:36:00;97236.47;;;11.37;100.00
5872;BME280;2962;51.312;7.378;2023-04-25T12:38:36;97238.19;;;12.25;100.00
5872;BME280;2962;51.312;7.378;2023-04-25T12:41:01;97234.84;;;11.80;100.00
5872;BME280;2962;51.312;7.378;2023-04-25T12:43:27;97246.91;;;10.42;100.00
5872;BME280;2962;51.312;7.378;2023-04-25T12:45:54;97230.47;;;9.48;100.00
5872;BME280;2962;51.312;7.378;2023-04-25T12:48:20;97237.06;;;8.55;100.00
5872;BME280;2962;51.312;7.378;2023-04-25T12:50:47;97240.16;;;7.96;100.00
5872;BME280;2962;51.312;7.378;2023-04-25T12:53:14;97234.28;;;7.23;100.00
5872;BME280;2962;51.312;7.378;2023-04-25T12:55:40;97246.09;;;7.15;100.00
5872;BME280;2962;51.312;7.378;2023-04-25T12:58:05;97247.81;;;7.23;100.00
5872;BME280;2962;51.312;7.378;2023-04-25T13:00:31;97246.78;;;6.96;100.00
5872;BME280;2962;51.312;7.378;2023-04-25T13:02:56;97224.81;;;6.54;100.00
5872;BME280;2962;51.312;7.378;2023-04-25T13:05:22;97234.50;;;6.55;100.00
5872;BME280;2962;51.312;7.378;2023-04-25T13:07:47;97250.06;;;6.74;100.00
5872;BME280;2962;51.312;7.378;2023-04-25T13:10:13;97240.41;;;6.73;100.00
5872;BME280;2962;51.312;7.378;2023-04-25T13:12:38;97245.72;;;7.01;100.00
5872;BME280;2962;51.312;7.378;2023-04-25T13:15:04;97250.16;;;7.25;100.00
5872;BME280;2962;51.312;7.378;2023-04-25T13:17:29;97245.25;;;7.46;100.00
5872;BME280;2962;51.312;7.378;2023-04-25T13:19:55;97250.59;;;7.43;100.00
5872;BME280;2962;51.312;7.378;2023-04-25T13:22:20;97244.94;;;7.67;100.00
5872;BME280;2962;51.312;7.378;2023-04-25T13:24:46;97245.56;;;7.76;100.00
5872;BME280;2962;51.312;7.378;2023-04-25T13:27:12;97242.63;;;7.85;100.00